sensor_id;sensor_type;location;lat;lon;timestamp;P1;durP1;ratioP1;P2;durP2;ratioP2
35959;SDS011;22043;50.970;7.192;2024-02-26T00:01:37;2.05;;;0.40;;
35959;SDS011;22043;50.970;7.192;2024-02-26T00:04:02;1.55;;;0.57;;
35959;SDS011;22043;50.970;7.192;2024-02-26T00:06:28;3.53;;;0.63;;
35959;SDS011;22043;50.970;7.192;2024-02-26T00:08:56;2.30;;;0.60;;
35959;SDS011;22043;50.970;7.192;2024-02-26T00:11:22;1.50;;;0.60;;
35959;SDS011;22043;50.970;7.192;2024-02-26T00:13:47;0.52;;;0.22;;
35959;SDS011;22043;50.970;7.192;2024-02-26T00:16:13;2.30;;;0.63;;
35959;SDS011;22043;50.970;7.192;2024-02-26T00:18:38;1.13;;;0.30;;
35959;SDS011;22043;50.970;7.192;2024-02-26T00:21:04;1.15;;;0.35;;
35959;SDS011;22043;50.970;7.192;2024-02-26T00:23:29;2.22;;;0.43;;
35959;SDS011;22043;50.970;7.192;2024-02-26T00:25:55;1.42;;;0.30;;
35959;SDS011;22043;50.970;7.192;2024-02-26T00:28:21;1.15;;;0.32;;
35959;SDS011;22043;50.970;7.192;2024-02-26T00:30:46;1.42;;;0.50;;
35959;SDS011;22043;50.970;7.192;2024-02-26T00:33:12;1.10;;;0.50;;
35959;SDS011;22043;50.970;7.192;2024-02-26T00:35:37;0.60;;;0.30;;
35959;SDS011;22043;50.970;7.192;2024-02-26T00:38:03;2.55;;;0.60;;
35959;SDS011;22043;50.970;7.192;2024-02-26T00:40:29;1.95;;;0.30;;
35959;SDS011;22043;50.970;7.192;2024-02-26T00:42:55;0.73;;;0.30;;
35959;SDS011;22043;50.970;7.192;2024-02-26T00:45:20;0.77;;;0.20;;
35959;SDS011;22043;50.970;7.192;2024-02-26T00:47:45;0.85;;;0.30;;
35959;SDS011;22043;50.970;7.192;2024-02-26T00:50:12;1.02;;;0.43;;
35959;SDS011;22043;50.970;7.192;2024-02-26T00:52:38;1.77;;;0.32;;
35959;SDS011;22043;50.970;7.192;2024-02-26T00:55:03;2.25;;;0.52;;
35959;SDS011;22043;50.970;7.192;2024-02-26T00:57:29;0.65;;;0.30;;
35959;SDS011;22043;50.970;7.192;2024-02-26T00:59:55;1.02;;;0.40;;
35959;SDS011;22043;50.970;7.192;2024-02-26T01:02:21;0.52;;;0.30;;
35959;SDS011;22043;50.970;7.192;2024-02-26T01:04:47;1.15;;;0.40;;
35959;SDS011;22043;50.970;7.192;2024-02-26T01:07:12;0.57;;;0.30;;
35959;SDS011;22043;50.970;7.192;2024-02-26T01:09:38;1.95;;;0.40;;
35959;SDS011;22043;50.970;7.192;2024-02-26T01:12:03;0.70;;;0.22;;
35959;SDS011;22043;50.970;7.192;2024-02-26T01:14:29;1.02;;;0.47;;
35959;SDS011;22043;50.970;7.192;2024-02-26T01:16:54;1.88;;;0.40;;
35959;SDS011;22043;50.970;7.192;2024-02-26T01:19:20;0.85;;;0.40;;
35959;SDS011;22043;50.970;7.192;2024-02-26T01:21:46;1.67;;;0.43;;
35959;SDS011;22043;50.970;7.192;2024-02-26T01:24:11;1.33;;;0.35;;
35959;SDS011;22043;50.970;7.192;2024-02-26T01:26:37;1.10;;;0.40;;
35959;SDS011;22043;50.970;7.192;2024-02-26T01:29:02;1.30;;;0.30;;
35959;SDS011;22043;50.970;7.192;2024-02-26T01:31:28;0.77;;;0.30;;
35959;SDS011;22043;50.970;7.192;2024-02-26T01:33:54;0.77;;;0.30;;
35959;SDS011;22043;50.970;7.192;2024-02-26T01:36:19;0.98;;;0.40;;
35959;SDS011;22043;50.970;7.192;2024-02-26T01:38:45;3.13;;;0.60;;
35959;SDS011;22043;50.970;7.192;2024-02-26T01:41:10;0.95;;;0.60;;
35959;SDS011;22043;50.970;7.192;2024-02-26T01:43:36;1.33;;;0.47;;
35959;SDS011;22043;50.970;7.192;2024-02-26T01:46:01;0.43;;;0.30;;
35959;SDS011;22043;50.970;7.192;2024-02-26T01:48:27;1.70;;;0.50;;
35959;SDS011;22043;50.970;7.192;2024-02-26T01:50:53;0.95;;;0.38;;
35959;SDS011;22043;50.970;7.192;2024-02-26T01:53:18;2.72;;;0.43;;
35959;SDS011;22043;50.970;7.192;2024-02-26T01:55:44;1.10;;;0.60;;
35959;SDS011;22043;50.970;7.192;2024-02-26T01:58:09;0.98;;;0.40;;
35959;SDS011;22043;50.970;7.192;2024-02-26T02:00:35;1.23;;;0.43;;
35959;SDS011;22043;50.970;7.192;2024-02-26T02:03:01;1.23;;;0.60;;
35959;SDS011;22043;50.970;7.192;2024-02-26T02:05:28;0.65;;;0.28;;
35959;SDS011;22043;50.970;7.192;2024-02-26T02:07:54;1.80;;;0.40;;
35959;SDS011;22043;50.970;7.192;2024-02-26T02:10:19;1.05;;;0.45;;
35959;SDS011;22043;50.970;7.192;2024-02-26T02:12:48;0.77;;;0.20;;
35959;SDS011;22043;50.970;7.192;2024-02-26T02:15:14;1.83;;;0.40;;
35959;SDS011;22043;50.970;7.192;2024-02-26T02:17:39;0.63;;;0.30;;
35959;SDS011;22043;50.970;7.192;2024-02-26T02:20:07;0.73;;;0.40;;
35959;SDS011;22043;50.970;7.192;2024-02-26T02:22:34;0.63;;;0.40;;
35959;SDS011;22043;50.970;7.192;2024-02-26T02:24:59;1.65;;;0.40;;
35959;SDS011;22043;50.970;7.192;2024-02-26T02:27:25;1.67;;;0.47;;
35959;SDS011;22043;50.970;7.192;2024-02-26T02:29:51;2.38;;;0.40;;
35959;SDS011;22043;50.970;7.192;2024-02-26T02:32:17;1.23;;;0.43;;
35959;SDS011;22043;50.970;7.192;2024-02-26T02:34:43;0.50;;;0.30;;
35959;SDS011;22043;50.970;7.192;2024-02-26T02:37:09;1.90;;;0.40;;
35959;SDS011;22043;50.970;7.192;2024-02-26T02:39:34;1.70;;;0.40;;
35959;SDS011;22043;50.970;7.192;2024-02-26T02:42:00;0.98;;;0.30;;
35959;SDS011;22043;50.970;7.192;2024-02-26T02:44:25;1.00;;;0.40;;
35959;SDS011;22043;50.970;7.192;2024-02-26T02:46:51;6.07;;;0.73;;
35959;SDS011;22043;50.970;7.192;2024-02-26T02:49:19;1.43;;;0.50;;
35959;SDS011;22043;50.970;7.192;2024-02-26T02:51:45;0.38;;;0.20;;
35959;SDS011;22043;50.970;7.192;2024-02-26T02:54:10;1.55;;;0.40;;
35959;SDS011;22043;50.970;7.192;2024-02-26T02:56:35;1.17;;;0.55;;
35959;SDS011;22043;50.970;7.192;2024-02-26T02:59:01;2.20;;;0.40;;
35959;SDS011;22043;50.970;7.192;2024-02-26T03:01:27;1.48;;;0.47;;
35959;SDS011;22043;50.970;7.192;2024-02-26T03:03:52;0.88;;;0.30;;
35959;SDS011;22043;50.970;7.192;2024-02-26T03:06:18;1.15;;;0.43;;
35959;SDS011;22043;50.970;7.192;2024-02-26T03:08:46;0.68;;;0.40;;
35959;SDS011;22043;50.970;7.192;2024-02-26T03:11:15;1.02;;;0.30;;
35959;SDS011;22043;50.970;7.192;2024-02-26T03:13:41;1.00;;;0.30;;
35959;SDS011;22043;50.970;7.192;2024-02-26T03:16:06;2.40;;;0.40;;
35959;SDS011;22043;50.970;7.192;2024-02-26T03:18:32;1.60;;;0.38;;
35959;SDS011;22043;50.970;7.192;2024-02-26T03:20:57;0.90;;;0.40;;
35959;SDS011;22043;50.970;7.192;2024-02-26T03:23:23;0.77;;;0.40;;
35959;SDS011;22043;50.970;7.192;2024-02-26T03:25:48;3.85;;;0.65;;
35959;SDS011;22043;50.970;7.192;2024-02-26T03:28:14;0.93;;;0.28;;
35959;SDS011;22043;50.970;7.192;2024-02-26T03:30:39;0.75;;;0.40;;
35959;SDS011;22043;50.970;7.192;2024-02-26T03:33:05;0.40;;;0.20;;
35959;SDS011;22043;50.970;7.192;2024-02-26T03:35:30;1.65;;;0.30;;
35959;SDS011;22043;50.970;7.192;2024-02-26T03:37:55;2.22;;;0.40;;
35959;SDS011;22043;50.970;7.192;2024-02-26T03:40:21;6.63;;;0.77;;
35959;SDS011;22043;50.970;7.192;2024-02-26T03:42:46;0.60;;;0.38;;
35959;SDS011;22043;50.970;7.192;2024-02-26T03:45:12;4.15;;;0.47;;
35959;SDS011;22043;50.970;7.192;2024-02-26T03:47:37;0.80;;;0.43;;
35959;SDS011;22043;50.970;7.192;2024-02-26T03:50:05;1.03;;;0.50;;
35959;SDS011;22043;50.970;7.192;2024-02-26T03:52:31;0.45;;;0.40;;
35959;SDS011;22043;50.970;7.192;2024-02-26T03:54:57;2.10;;;0.40;;
35959;SDS011;22043;50.970;7.192;2024-02-26T03:57:22;1.65;;;0.40;;
35959;SDS011;22043;50.970;7.192;2024-02-26T03:59:48;0.77;;;0.32;;
35959;SDS011;22043;50.970;7.192;2024-02-26T04:02:13;0.25;;;0.10;;
35959;SDS011;22043;50.970;7.192;2024-02-26T04:04:39;1.05;;;0.40;;
35959;SDS011;22043;50.970;7.192;2024-02-26T04:07:04;1.88;;;0.60;;
35959;SDS011;22043;50.970;7.192;2024-02-26T04:09:33;0.75;;;0.30;;
35959;SDS011;22043;50.970;7.192;2024-02-26T04:11:58;1.70;;;0.52;;
35959;SDS011;22043;50.970;7.192;2024-02-26T04:14:24;2.20;;;0.70;;
35959;SDS011;22043;50.970;7.192;2024-02-26T04:16:49;0.70;;;0.40;;
35959;SDS011;22043;50.970;7.192;2024-02-26T04:19:17;0.95;;;0.45;;
35959;SDS011;22043;50.970;7.192;2024-02-26T04:21:43;2.67;;;0.50;;
35959;SDS011;22043;50.970;7.192;2024-02-26T04:24:09;1.88;;;0.40;;
35959;SDS011;22043;50.970;7.192;2024-02-26T04:26:34;2.72;;;0.43;;
35959;SDS011;22043;50.970;7.192;2024-02-26T04:29:00;1.52;;;0.40;;
35959;SDS011;22043;50.970;7.192;2024-02-26T04:31:25;2.15;;;0.52;;
35959;SDS011;22043;50.970;7.192;2024-02-26T04:33:55;2.15;;;0.68;;
35959;SDS011;22043;50.970;7.192;2024-02-26T04:36:20;2.45;;;0.75;;
35959;SDS011;22043;50.970;7.192;2024-02-26T04:38:47;0.85;;;0.57;;
35959;SDS011;22043;50.970;7.192;2024-02-26T04:41:12;1.40;;;0.40;;
35959;SDS011;22043;50.970;7.192;2024-02-26T04:43:38;1.08;;;0.32;;
35959;SDS011;22043;50.970;7.192;2024-02-26T04:46:09;0.77;;;0.40;;
35959;SDS011;22043;50.970;7.192;2024-02-26T04:48:38;1.40;;;0.50;;
35959;SDS011;22043;50.970;7.192;2024-02-26T04:51:04;2.22;;;0.63;;
35959;SDS011;22043;50.970;7.192;2024-02-26T04:53:29;1.08;;;0.30;;
35959;SDS011;22043;50.970;7.192;2024-02-26T04:55:55;2.65;;;1.10;;
35959;SDS011;22043;50.970;7.192;2024-02-26T04:58:20;2.50;;;0.47;;
35959;SDS011;22043;50.970;7.192;2024-02-26T05:00:46;0.98;;;0.47;;
35959;SDS011;22043;50.970;7.192;2024-02-26T05:03:11;1.23;;;0.60;;
35959;SDS011;22043;50.970;7.192;2024-02-26T05:05:44;2.15;;;0.50;;
35959;SDS011;22043;50.970;7.192;2024-02-26T05:08:09;1.17;;;0.52;;
35959;SDS011;22043;50.970;7.192;2024-02-26T05:10:35;1.75;;;0.45;;
35959;SDS011;22043;50.970;7.192;2024-02-26T05:13:04;1.25;;;0.50;;
35959;SDS011;22043;50.970;7.192;2024-02-26T05:15:30;1.08;;;0.60;;
35959;SDS011;22043;50.970;7.192;2024-02-26T05:17:55;2.17;;;0.60;;
35959;SDS011;22043;50.970;7.192;2024-02-26T05:20:21;1.55;;;0.50;;
35959;SDS011;22043;50.970;7.192;2024-02-26T05:22:46;1.70;;;0.68;;
35959;SDS011;22043;50.970;7.192;2024-02-26T05:25:14;1.40;;;0.40;;
35959;SDS011;22043;50.970;7.192;2024-02-26T05:27:40;1.13;;;0.47;;
35959;SDS011;22043;50.970;7.192;2024-02-26T05:30:06;0.65;;;0.20;;
35959;SDS011;22043;50.970;7.192;2024-02-26T05:32:32;3.40;;;0.60;;
35959;SDS011;22043;50.970;7.192;2024-02-26T05:34:57;1.05;;;0.45;;
35959;SDS011;22043;50.970;7.192;2024-02-26T05:37:23;1.50;;;0.50;;
35959;SDS011;22043;50.970;7.192;2024-02-26T05:39:48;1.08;;;0.57;;
35959;SDS011;22043;50.970;7.192;2024-02-26T05:42:14;1.08;;;0.52;;
35959;SDS011;22043;50.970;7.192;2024-02-26T05:44:39;2.35;;;0.40;;
35959;SDS011;22043;50.970;7.192;2024-02-26T05:47:05;2.75;;;0.90;;
35959;SDS011;22043;50.970;7.192;2024-02-26T05:49:30;1.55;;;0.70;;
35959;SDS011;22043;50.970;7.192;2024-02-26T05:51:56;2.97;;;0.73;;
35959;SDS011;22043;50.970;7.192;2024-02-26T05:54:21;2.72;;;0.90;;
35959;SDS011;22043;50.970;7.192;2024-02-26T05:56:47;1.40;;;0.60;;
35959;SDS011;22043;50.970;7.192;2024-02-26T05:59:12;2.47;;;0.50;;
35959;SDS011;22043;50.970;7.192;2024-02-26T06:01:38;1.08;;;0.60;;
35959;SDS011;22043;50.970;7.192;2024-02-26T06:04:03;1.40;;;0.57;;
35959;SDS011;22043;50.970;7.192;2024-02-26T06:06:28;1.85;;;0.88;;
35959;SDS011;22043;50.970;7.192;2024-02-26T06:08:54;1.23;;;0.50;;
35959;SDS011;22043;50.970;7.192;2024-02-26T06:11:19;1.08;;;0.60;;
35959;SDS011;22043;50.970;7.192;2024-02-26T06:13:45;2.25;;;0.82;;
35959;SDS011;22043;50.970;7.192;2024-02-26T06:16:10;3.20;;;0.70;;
35959;SDS011;22043;50.970;7.192;2024-02-26T06:18:36;1.02;;;0.55;;
35959;SDS011;22043;50.970;7.192;2024-02-26T06:21:01;3.85;;;1.00;;
35959;SDS011;22043;50.970;7.192;2024-02-26T06:23:27;1.88;;;0.77;;
35959;SDS011;22043;50.970;7.192;2024-02-26T06:25:53;4.05;;;1.10;;
35959;SDS011;22043;50.970;7.192;2024-02-26T06:28:18;1.98;;;0.70;;
35959;SDS011;22043;50.970;7.192;2024-02-26T06:30:44;2.83;;;1.27;;
35959;SDS011;22043;50.970;7.192;2024-02-26T06:33:11;3.08;;;1.08;;
35959;SDS011;22043;50.970;7.192;2024-02-26T06:35:37;1.20;;;0.52;;
35959;SDS011;22043;50.970;7.192;2024-02-26T06:38:03;2.33;;;0.77;;
35959;SDS011;22043;50.970;7.192;2024-02-26T06:40:29;1.85;;;0.77;;
35959;SDS011;22043;50.970;7.192;2024-02-26T06:42:55;1.00;;;0.60;;
35959;SDS011;22043;50.970;7.192;2024-02-26T06:45:21;1.42;;;0.60;;
35959;SDS011;22043;50.970;7.192;2024-02-26T06:47:46;1.77;;;0.70;;
35959;SDS011;22043;50.970;7.192;2024-02-26T06:50:11;1.80;;;0.73;;
35959;SDS011;22043;50.970;7.192;2024-02-26T06:52:38;2.00;;;0.70;;
35959;SDS011;22043;50.970;7.192;2024-02-26T06:55:03;1.55;;;0.73;;
35959;SDS011;22043;50.970;7.192;2024-02-26T06:57:30;1.77;;;0.80;;
35959;SDS011;22043;50.970;7.192;2024-02-26T06:59:55;2.25;;;1.00;;
35959;SDS011;22043;50.970;7.192;2024-02-26T07:02:21;1.60;;;0.70;;
35959;SDS011;22043;50.970;7.192;2024-02-26T07:04:46;1.75;;;0.80;;
35959;SDS011;22043;50.970;7.192;2024-02-26T07:07:12;1.85;;;0.73;;
35959;SDS011;22043;50.970;7.192;2024-02-26T07:09:37;1.75;;;0.60;;
35959;SDS011;22043;50.970;7.192;2024-02-26T07:12:03;2.15;;;0.95;;
35959;SDS011;22043;50.970;7.192;2024-02-26T07:14:28;1.20;;;0.60;;
35959;SDS011;22043;50.970;7.192;2024-02-26T07:16:54;3.20;;;1.20;;
35959;SDS011;22043;50.970;7.192;2024-02-26T07:19:19;3.17;;;0.85;;
35959;SDS011;22043;50.970;7.192;2024-02-26T07:21:44;1.73;;;0.82;;
35959;SDS011;22043;50.970;7.192;2024-02-26T07:24:10;2.72;;;0.80;;
35959;SDS011;22043;50.970;7.192;2024-02-26T07:26:35;2.40;;;0.85;;
35959;SDS011;22043;50.970;7.192;2024-02-26T07:29:01;1.75;;;0.80;;
35959;SDS011;22043;50.970;7.192;2024-02-26T07:31:26;1.65;;;0.73;;
35959;SDS011;22043;50.970;7.192;2024-02-26T07:33:51;2.10;;;0.98;;
35959;SDS011;22043;50.970;7.192;2024-02-26T07:36:17;2.20;;;0.80;;
35959;SDS011;22043;50.970;7.192;2024-02-26T07:38:42;2.97;;;0.70;;
35959;SDS011;22043;50.970;7.192;2024-02-26T07:41:08;1.77;;;0.75;;
35959;SDS011;22043;50.970;7.192;2024-02-26T07:43:34;2.70;;;0.80;;
35959;SDS011;22043;50.970;7.192;2024-02-26T07:45:59;1.98;;;0.60;;
35959;SDS011;22043;50.970;7.192;2024-02-26T07:48:25;3.05;;;1.50;;
35959;SDS011;22043;50.970;7.192;2024-02-26T07:50:50;1.58;;;0.90;;
35959;SDS011;22043;50.970;7.192;2024-02-26T07:53:16;2.00;;;0.70;;
35959;SDS011;22043;50.970;7.192;2024-02-26T07:55:41;2.25;;;0.70;;
35959;SDS011;22043;50.970;7.192;2024-02-26T07:58:07;2.15;;;1.00;;
35959;SDS011;22043;50.970;7.192;2024-02-26T08:00:32;2.97;;;0.75;;
35959;SDS011;22043;50.970;7.192;2024-02-26T08:02:57;2.40;;;0.70;;
35959;SDS011;22043;50.970;7.192;2024-02-26T08:05:23;1.83;;;1.00;;
35959;SDS011;22043;50.970;7.192;2024-02-26T08:07:50;2.60;;;0.70;;
35959;SDS011;22043;50.970;7.192;2024-02-26T08:10:15;2.47;;;0.90;;
35959;SDS011;22043;50.970;7.192;2024-02-26T08:12:41;1.95;;;1.00;;
35959;SDS011;22043;50.970;7.192;2024-02-26T08:15:06;3.63;;;0.90;;
35959;SDS011;22043;50.970;7.192;2024-02-26T08:17:32;2.08;;;0.95;;
35959;SDS011;22043;50.970;7.192;2024-02-26T08:19:58;1.77;;;0.80;;
35959;SDS011;22043;50.970;7.192;2024-02-26T08:22:24;2.67;;;0.90;;
35959;SDS011;22043;50.970;7.192;2024-02-26T08:24:50;2.10;;;0.70;;
35959;SDS011;22043;50.970;7.192;2024-02-26T08:27:15;1.92;;;0.98;;
35959;SDS011;22043;50.970;7.192;2024-02-26T08:29:40;1.27;;;0.75;;
35959;SDS011;22043;50.970;7.192;2024-02-26T08:32:06;2.17;;;0.90;;
35959;SDS011;22043;50.970;7.192;2024-02-26T08:34:32;1.35;;;0.57;;
35959;SDS011;22043;50.970;7.192;2024-02-26T08:36:58;1.63;;;0.90;;
35959;SDS011;22043;50.970;7.192;2024-02-26T08:39:23;2.17;;;0.82;;
35959;SDS011;22043;50.970;7.192;2024-02-26T08:41:48;2.38;;;0.80;;
35959;SDS011;22043;50.970;7.192;2024-02-26T08:44:14;2.40;;;0.85;;
35959;SDS011;22043;50.970;7.192;2024-02-26T08:46:39;2.03;;;0.98;;
35959;SDS011;22043;50.970;7.192;2024-02-26T08:49:05;2.85;;;1.40;;
35959;SDS011;22043;50.970;7.192;2024-02-26T08:51:30;3.38;;;0.90;;
35959;SDS011;22043;50.970;7.192;2024-02-26T08:53:56;1.48;;;0.90;;
35959;SDS011;22043;50.970;7.192;2024-02-26T08:56:21;1.92;;;1.00;;
35959;SDS011;22043;50.970;7.192;2024-02-26T08:58:47;4.18;;;0.98;;
35959;SDS011;22043;50.970;7.192;2024-02-26T09:01:14;2.17;;;0.90;;
35959;SDS011;22043;50.970;7.192;2024-02-26T09:03:40;2.28;;;0.90;;
35959;SDS011;22043;50.970;7.192;2024-02-26T09:06:05;3.08;;;1.00;;
35959;SDS011;22043;50.970;7.192;2024-02-26T09:08:32;3.33;;;1.05;;
35959;SDS011;22043;50.970;7.192;2024-02-26T09:10:58;2.60;;;1.20;;
35959;SDS011;22043;50.970;7.192;2024-02-26T09:13:23;1.95;;;0.95;;
35959;SDS011;22043;50.970;7.192;2024-02-26T09:15:48;2.85;;;0.95;;
35959;SDS011;22043;50.970;7.192;2024-02-26T09:18:17;2.40;;;1.10;;
35959;SDS011;22043;50.970;7.192;2024-02-26T09:20:42;3.13;;;1.00;;
35959;SDS011;22043;50.970;7.192;2024-02-26T09:23:08;2.83;;;1.08;;
35959;SDS011;22043;50.970;7.192;2024-02-26T09:25:34;2.45;;;1.25;;
35959;SDS011;22043;50.970;7.192;2024-02-26T09:28:00;3.08;;;1.27;;
35959;SDS011;22043;50.970;7.192;2024-02-26T09:30:26;3.40;;;1.40;;
35959;SDS011;22043;50.970;7.192;2024-02-26T09:32:52;2.03;;;0.90;;
35959;SDS011;22043;50.970;7.192;2024-02-26T09:35:17;3.90;;;1.17;;
35959;SDS011;22043;50.970;7.192;2024-02-26T09:37:43;3.47;;;1.05;;
35959;SDS011;22043;50.970;7.192;2024-02-26T09:40:09;5.13;;;1.10;;
35959;SDS011;22043;50.970;7.192;2024-02-26T09:42:37;2.72;;;1.20;;
35959;SDS011;22043;50.970;7.192;2024-02-26T09:45:04;2.20;;;1.10;;
35959;SDS011;22043;50.970;7.192;2024-02-26T09:47:33;2.13;;;0.98;;
35959;SDS011;22043;50.970;7.192;2024-02-26T09:50:00;3.30;;;1.20;;
35959;SDS011;22043;50.970;7.192;2024-02-26T09:52:28;1.67;;;0.80;;
35959;SDS011;22043;50.970;7.192;2024-02-26T09:54:53;1.77;;;1.10;;
35959;SDS011;22043;50.970;7.192;2024-02-26T09:57:19;2.85;;;1.02;;
35959;SDS011;22043;50.970;7.192;2024-02-26T09:59:44;1.92;;;0.90;;
35959;SDS011;22043;50.970;7.192;2024-02-26T10:02:12;2.45;;;1.17;;
35959;SDS011;22043;50.970;7.192;2024-02-26T10:04:41;11.60;;;1.67;;
35959;SDS011;22043;50.970;7.192;2024-02-26T10:07:11;5.05;;;2.65;;
35959;SDS011;22043;50.970;7.192;2024-02-26T10:09:37;4.00;;;1.40;;
35959;SDS011;22043;50.970;7.192;2024-02-26T10:12:03;3.65;;;1.10;;
35959;SDS011;22043;50.970;7.192;2024-02-26T10:14:30;4.45;;;1.27;;
35959;SDS011;22043;50.970;7.192;2024-02-26T10:16:55;3.47;;;1.40;;
35959;SDS011;22043;50.970;7.192;2024-02-26T10:19:28;4.25;;;1.35;;
35959;SDS011;22043;50.970;7.192;2024-02-26T10:21:58;2.85;;;1.20;;
35959;SDS011;22043;50.970;7.192;2024-02-26T10:24:25;4.32;;;1.52;;
35959;SDS011;22043;50.970;7.192;2024-02-26T10:26:54;3.40;;;1.45;;
35959;SDS011;22043;50.970;7.192;2024-02-26T10:29:21;2.40;;;1.10;;
35959;SDS011;22043;50.970;7.192;2024-02-26T10:31:48;3.75;;;1.42;;
35959;SDS011;22043;50.970;7.192;2024-02-26T10:34:17;3.72;;;1.30;;
35959;SDS011;22043;50.970;7.192;2024-02-26T10:36:42;4.22;;;1.40;;
35959;SDS011;22043;50.970;7.192;2024-02-26T10:39:09;2.45;;;1.27;;
35959;SDS011;22043;50.970;7.192;2024-02-26T10:41:37;3.28;;;1.50;;
35959;SDS011;22043;50.970;7.192;2024-02-26T10:44:03;4.13;;;1.60;;
35959;SDS011;22043;50.970;7.192;2024-02-26T10:46:28;3.08;;;1.52;;
35959;SDS011;22043;50.970;7.192;2024-02-26T10:48:54;3.42;;;1.42;;
35959;SDS011;22043;50.970;7.192;2024-02-26T10:51:26;4.07;;;1.48;;
35959;SDS011;22043;50.970;7.192;2024-02-26T10:53:54;4.38;;;1.33;;
35959;SDS011;22043;50.970;7.192;2024-02-26T10:56:24;3.30;;;1.48;;
35959;SDS011;22043;50.970;7.192;2024-02-26T10:58:50;3.42;;;1.70;;
35959;SDS011;22043;50.970;7.192;2024-02-26T11:01:16;2.42;;;1.20;;
35959;SDS011;22043;50.970;7.192;2024-02-26T11:03:41;3.50;;;1.60;;
35959;SDS011;22043;50.970;7.192;2024-02-26T11:06:06;4.65;;;1.70;;
35959;SDS011;22043;50.970;7.192;2024-02-26T11:08:33;6.30;;;2.15;;
35959;SDS011;22043;50.970;7.192;2024-02-26T11:11:00;4.85;;;2.03;;
35959;SDS011;22043;50.970;7.192;2024-02-26T11:13:26;3.90;;;1.80;;
35959;SDS011;22043;50.970;7.192;2024-02-26T11:15:55;2.92;;;1.48;;
35959;SDS011;22043;50.970;7.192;2024-02-26T11:18:22;4.63;;;1.50;;
35959;SDS011;22043;50.970;7.192;2024-02-26T11:20:48;3.17;;;1.40;;
35959;SDS011;22043;50.970;7.192;2024-02-26T11:23:14;2.63;;;1.38;;
35959;SDS011;22043;50.970;7.192;2024-02-26T11:25:40;3.13;;;1.55;;
35959;SDS011;22043;50.970;7.192;2024-02-26T11:28:14;3.70;;;1.55;;
35959;SDS011;22043;50.970;7.192;2024-02-26T11:30:43;4.13;;;2.10;;
35959;SDS011;22043;50.970;7.192;2024-02-26T11:33:10;4.68;;;2.08;;
35959;SDS011;22043;50.970;7.192;2024-02-26T11:35:37;6.65;;;3.08;;
35959;SDS011;22043;50.970;7.192;2024-02-26T11:38:03;3.80;;;1.92;;
35959;SDS011;22043;50.970;7.192;2024-02-26T11:40:30;5.43;;;2.60;;
35959;SDS011;22043;50.970;7.192;2024-02-26T11:42:56;6.70;;;2.95;;
35959;SDS011;22043;50.970;7.192;2024-02-26T11:48:11;2.67;;;1.40;;
35959;SDS011;22043;50.970;7.192;2024-02-26T11:50:41;4.93;;;1.90;;
35959;SDS011;22043;50.970;7.192;2024-02-26T11:53:20;5.72;;;2.30;;
35959;SDS011;22043;50.970;7.192;2024-02-26T11:58:39;5.18;;;2.15;;
35959;SDS011;22043;50.970;7.192;2024-02-26T12:01:06;2.95;;;1.60;;
35959;SDS011;22043;50.970;7.192;2024-02-26T12:03:31;3.63;;;1.90;;
35959;SDS011;22043;50.970;7.192;2024-02-26T12:05:57;3.90;;;1.42;;
35959;SDS011;22043;50.970;7.192;2024-02-26T12:08:22;5.35;;;2.70;;
35959;SDS011;22043;50.970;7.192;2024-02-26T12:10:50;6.13;;;2.80;;
35959;SDS011;22043;50.970;7.192;2024-02-26T12:13:16;4.90;;;2.20;;
35959;SDS011;22043;50.970;7.192;2024-02-26T12:15:42;4.55;;;2.00;;
35959;SDS011;22043;50.970;7.192;2024-02-26T12:18:09;3.53;;;1.73;;
35959;SDS011;22043;50.970;7.192;2024-02-26T12:20:36;4.53;;;1.85;;
35959;SDS011;22043;50.970;7.192;2024-02-26T12:23:02;5.93;;;1.85;;
35959;SDS011;22043;50.970;7.192;2024-02-26T12:25:31;3.42;;;1.50;;
35959;SDS011;22043;50.970;7.192;2024-02-26T12:27:58;5.78;;;2.08;;
35959;SDS011;22043;50.970;7.192;2024-02-26T12:30:24;3.72;;;1.92;;
35959;SDS011;22043;50.970;7.192;2024-02-26T12:32:59;4.05;;;2.05;;
35959;SDS011;22043;50.970;7.192;2024-02-26T12:35:26;4.47;;;1.88;;
35959;SDS011;22043;50.970;7.192;2024-02-26T12:37:55;3.65;;;1.98;;
35959;SDS011;22043;50.970;7.192;2024-02-26T12:40:21;2.83;;;1.45;;
35959;SDS011;22043;50.970;7.192;2024-02-26T12:42:46;6.22;;;1.58;;
35959;SDS011;22043;50.970;7.192;2024-02-26T12:45:12;4.40;;;2.13;;
35959;SDS011;22043;50.970;7.192;2024-02-26T12:47:39;4.65;;;1.95;;
35959;SDS011;22043;50.970;7.192;2024-02-26T12:50:06;5.82;;;1.95;;
35959;SDS011;22043;50.970;7.192;2024-02-26T12:52:32;5.25;;;1.88;;
35959;SDS011;22043;50.970;7.192;2024-02-26T12:54:59;4.47;;;1.52;;
35959;SDS011;22043;50.970;7.192;2024-02-26T12:57:25;4.35;;;2.15;;
35959;SDS011;22043;50.970;7.192;2024-02-26T12:59:52;3.88;;;1.88;;
35959;SDS011;22043;50.970;7.192;2024-02-26T13:02:17;3.65;;;2.08;;
35959;SDS011;22043;50.970;7.192;2024-02-26T13:04:43;4.78;;;2.33;;
35959;SDS011;22043;50.970;7.192;2024-02-26T13:07:09;4.35;;;1.50;;
35959;SDS011;22043;50.970;7.192;2024-02-26T13:09:34;5.68;;;1.85;;
35959;SDS011;22043;50.970;7.192;2024-02-26T13:12:06;4.72;;;1.83;;
35959;SDS011;22043;50.970;7.192;2024-02-26T13:14:32;3.83;;;1.83;;
35959;SDS011;22043;50.970;7.192;2024-02-26T13:16:59;4.68;;;1.73;;
35959;SDS011;22043;50.970;7.192;2024-02-26T13:19:25;5.47;;;2.47;;
35959;SDS011;22043;50.970;7.192;2024-02-26T13:21:51;6.68;;;2.00;;
35959;SDS011;22043;50.970;7.192;2024-02-26T13:24:17;4.07;;;1.63;;
35959;SDS011;22043;50.970;7.192;2024-02-26T13:26:45;5.20;;;1.70;;
35959;SDS011;22043;50.970;7.192;2024-02-26T13:29:17;4.50;;;1.85;;
35959;SDS011;22043;50.970;7.192;2024-02-26T13:31:43;6.28;;;2.20;;
35959;SDS011;22043;50.970;7.192;2024-02-26T13:34:09;4.45;;;1.77;;
35959;SDS011;22043;50.970;7.192;2024-02-26T13:36:34;4.82;;;2.03;;
35959;SDS011;22043;50.970;7.192;2024-02-26T13:39:00;4.88;;;2.10;;
35959;SDS011;22043;50.970;7.192;2024-02-26T13:41:26;6.50;;;2.10;;
35959;SDS011;22043;50.970;7.192;2024-02-26T13:43:52;5.97;;;2.35;;
35959;SDS011;22043;50.970;7.192;2024-02-26T13:46:18;5.68;;;2.70;;
35959;SDS011;22043;50.970;7.192;2024-02-26T13:48:43;6.13;;;2.83;;
35959;SDS011;22043;50.970;7.192;2024-02-26T13:51:09;5.35;;;2.72;;
35959;SDS011;22043;50.970;7.192;2024-02-26T13:53:34;5.80;;;2.65;;
35959;SDS011;22043;50.970;7.192;2024-02-26T13:56:00;6.20;;;2.80;;
35959;SDS011;22043;50.970;7.192;2024-02-26T13:58:29;6.35;;;2.65;;
35959;SDS011;22043;50.970;7.192;2024-02-26T14:00:54;5.65;;;3.05;;
35959;SDS011;22043;50.970;7.192;2024-02-26T14:03:20;7.18;;;3.05;;
35959;SDS011;22043;50.970;7.192;2024-02-26T14:05:45;6.43;;;2.83;;
35959;SDS011;22043;50.970;7.192;2024-02-26T14:08:11;8.73;;;3.40;;
35959;SDS011;22043;50.970;7.192;2024-02-26T14:10:37;6.65;;;3.55;;
35959;SDS011;22043;50.970;7.192;2024-02-26T14:13:03;7.18;;;2.85;;
35959;SDS011;22043;50.970;7.192;2024-02-26T14:15:28;6.05;;;3.25;;
35959;SDS011;22043;50.970;7.192;2024-02-26T14:17:54;5.35;;;2.47;;
35959;SDS011;22043;50.970;7.192;2024-02-26T14:20:21;6.43;;;3.33;;
35959;SDS011;22043;50.970;7.192;2024-02-26T14:22:48;6.88;;;3.00;;
35959;SDS011;22043;50.970;7.192;2024-02-26T14:25:14;5.55;;;2.67;;
35959;SDS011;22043;50.970;7.192;2024-02-26T14:27:39;5.10;;;3.20;;
35959;SDS011;22043;50.970;7.192;2024-02-26T14:30:06;6.75;;;3.08;;
35959;SDS011;22043;50.970;7.192;2024-02-26T14:32:32;7.10;;;3.25;;
35959;SDS011;22043;50.970;7.192;2024-02-26T14:35:03;6.35;;;2.80;;
35959;SDS011;22043;50.970;7.192;2024-02-26T14:37:32;6.25;;;3.25;;
35959;SDS011;22043;50.970;7.192;2024-02-26T14:39:58;26.13;;;3.85;;
35959;SDS011;22043;50.970;7.192;2024-02-26T14:42:23;6.47;;;3.05;;
35959;SDS011;22043;50.970;7.192;2024-02-26T14:44:49;7.00;;;3.65;;
35959;SDS011;22043;50.970;7.192;2024-02-26T14:47:16;7.50;;;2.88;;